createdAt,value
2018-11-04T00:00:18.307Z,9.00
2018-11-04T00:02:47.173Z,9.00
2018-11-04T00:05:15.851Z,9.00
2018-11-04T00:07:44.542Z,9.10
2018-11-04T00:10:12.791Z,9.10
2018-11-04T00:12:41.260Z,9.20
2018-11-04T00:15:10.396Z,9.00
2018-11-04T00:17:45.384Z,8.90
2018-11-04T00:20:14.827Z,8.90
2018-11-04T00:22:43.020Z,8.90
2018-11-04T00:25:12.810Z,8.90
2018-11-04T00:27:41.025Z,8.80
2018-11-04T00:30:11.627Z,8.80
2018-11-04T00:32:40.085Z,8.80
2018-11-04T00:35:08.806Z,8.90
2018-11-04T00:37:37.055Z,9.00
2018-11-04T00:40:05.871Z,9.00
2018-11-04T00:42:34.124Z,9.00
2018-11-04T00:45:02.471Z,8.90
2018-11-04T00:47:30.662Z,9.00
2018-11-04T00:49:59.019Z,9.00
2018-11-04T00:52:27.233Z,9.00
2018-11-04T00:54:55.489Z,9.00
2018-11-04T00:57:23.702Z,9.00
2018-11-04T00:59:52.071Z,9.00
2018-11-04T01:02:20.315Z,8.80
2018-11-04T01:04:48.609Z,8.70
2018-11-04T01:07:16.881Z,8.70
2018-11-04T01:09:45.073Z,8.70
2018-11-04T01:12:13.263Z,8.60
2018-11-04T01:14:41.809Z,8.70
2018-11-04T01:17:10.566Z,8.60
2018-11-04T01:19:39.002Z,8.60
2018-11-04T01:22:07.650Z,8.60
2018-11-04T01:24:36.030Z,8.60
2018-11-04T01:27:04.690Z,8.50
2018-11-04T01:29:32.902Z,8.50
2018-11-04T01:32:01.259Z,8.50
2018-11-04T01:34:29.682Z,8.40
2018-11-04T01:36:57.924Z,8.50
2018-11-04T01:39:26.422Z,8.50
2018-11-04T01:41:54.616Z,8.50
2018-11-04T01:44:22.796Z,8.50
2018-11-04T01:46:50.988Z,8.50
2018-11-04T01:49:19.182Z,8.40
2018-11-04T01:51:47.386Z,8.40
2018-11-04T01:54:15.567Z,8.40
2018-11-04T01:56:43.769Z,8.40
2018-11-04T01:59:11.953Z,8.40
2018-11-04T02:01:40.145Z,8.20
2018-11-04T02:04:08.329Z,8.10
2018-11-04T02:06:36.748Z,8.10
2018-11-04T02:09:07.473Z,8.00
2018-11-04T02:11:35.670Z,8.10
2018-11-04T02:14:03.952Z,7.90
2018-11-04T02:16:32.136Z,7.80
2018-11-04T02:19:00.358Z,7.70
2018-11-04T02:21:28.549Z,7.60
2018-11-04T02:23:56.725Z,7.60
2018-11-04T02:26:24.914Z,7.50
2018-11-04T02:28:53.098Z,7.50
2018-11-04T02:31:21.309Z,7.50
2018-11-04T02:33:49.514Z,7.60
2018-11-04T02:36:17.742Z,7.60
2018-11-04T02:38:45.926Z,7.60
2018-11-04T02:41:14.139Z,7.50
2018-11-04T02:43:42.317Z,7.40
2018-11-04T02:46:10.513Z,7.20
2018-11-04T02:48:38.690Z,7.20
2018-11-04T02:51:06.886Z,7.10
2018-11-04T02:53:35.078Z,7.20
2018-11-04T02:56:03.283Z,7.10
2018-11-04T02:58:31.466Z,7.00
2018-11-04T03:00:59.666Z,6.90
2018-11-04T03:03:27.854Z,7.10
2018-11-04T03:05:56.054Z,7.00
2018-11-04T03:08:24.254Z,6.90
2018-11-04T03:10:52.442Z,7.00
2018-11-04T03:13:20.646Z,7.00
2018-11-04T03:15:48.838Z,7.00
2018-11-04T03:18:17.100Z,6.90
2018-11-04T03:20:45.306Z,6.90
2018-11-04T03:23:13.501Z,6.70
2018-11-04T03:25:41.695Z,6.60
2018-11-04T03:28:10.706Z,6.50
2018-11-04T03:30:39.175Z,6.40
2018-11-04T03:33:08.177Z,6.30
2018-11-04T03:35:36.386Z,6.40
2018-11-04T03:38:04.698Z,6.30
2018-11-04T03:40:32.890Z,6.30
2018-11-04T03:43:01.090Z,6.30
2018-11-04T03:45:29.269Z,6.40
2018-11-04T03:47:57.457Z,6.30
2018-11-04T03:50:25.643Z,6.30
2018-11-04T03:52:53.862Z,6.20
2018-11-04T03:55:22.049Z,6.20
2018-11-04T03:57:50.257Z,6.20
2018-11-04T04:00:18.452Z,6.10
2018-11-04T04:02:46.641Z,6.20
2018-11-04T04:05:14.814Z,6.40
2018-11-04T04:07:43.009Z,6.40
2018-11-04T04:10:11.195Z,6.40
2018-11-04T04:12:39.386Z,6.30
2018-11-04T04:15:08.367Z,6.20
2018-11-04T04:17:36.605Z,6.30
2018-11-04T04:20:05.367Z,6.30
2018-11-04T04:22:33.635Z,6.40
2018-11-04T04:25:01.825Z,6.40
2018-11-04T04:27:30.168Z,6.30
2018-11-04T04:29:58.637Z,6.20
2018-11-04T04:32:26.843Z,6.20
2018-11-04T04:34:55.038Z,6.10
2018-11-04T04:37:23.269Z,6.00
2018-11-04T04:39:51.481Z,6.00
2018-11-04T04:42:19.669Z,5.90
2018-11-04T04:44:48.302Z,5.80
2018-11-04T04:47:16.505Z,5.80
2018-11-04T04:49:44.763Z,5.90
2018-11-04T04:52:12.966Z,5.90
2018-11-04T04:54:41.185Z,5.90
2018-11-04T04:57:09.393Z,5.90
2018-11-04T04:59:37.634Z,6.00
2018-11-04T05:02:05.823Z,6.00
2018-11-04T05:04:34.007Z,5.90
2018-11-04T05:07:02.193Z,5.80
2018-11-04T05:09:30.390Z,5.70
2018-11-04T05:11:58.606Z,5.70
2018-11-04T05:14:26.785Z,5.60
2018-11-04T05:16:55.006Z,5.70
2018-11-04T05:19:23.198Z,5.60
2018-11-04T05:21:51.395Z,5.60
2018-11-04T05:24:19.584Z,5.60
2018-11-04T05:26:47.776Z,5.50
2018-11-04T05:29:15.961Z,5.50
2018-11-04T05:31:44.149Z,5.60
2018-11-04T05:34:12.328Z,5.60
2018-11-04T05:36:40.525Z,5.70
2018-11-04T05:39:09.766Z,5.70
2018-11-04T05:41:38.315Z,5.70
2018-11-04T05:44:06.494Z,5.70
2018-11-04T05:46:35.110Z,5.70
2018-11-04T05:49:03.301Z,5.60
2018-11-04T05:51:31.490Z,5.60
2018-11-04T05:53:59.688Z,5.70
2018-11-04T05:56:27.857Z,5.60
2018-11-04T05:58:56.041Z,5.50
2018-11-04T06:01:24.289Z,5.40
2018-11-04T06:03:52.473Z,5.30
2018-11-04T06:06:20.661Z,5.30
2018-11-04T06:08:48.846Z,5.40
2018-11-04T06:11:17.025Z,5.30
2018-11-04T06:13:45.223Z,5.40
2018-11-04T06:16:13.412Z,5.30
2018-11-04T06:18:41.606Z,5.20
2018-11-04T06:21:09.786Z,5.10
2018-11-04T06:23:38.013Z,5.10
2018-11-04T06:26:06.249Z,5.10
2018-11-04T06:28:34.465Z,5.20
2018-11-04T06:31:02.652Z,5.30
2018-11-04T06:33:30.853Z,5.30
2018-11-04T06:35:59.049Z,5.50
2018-11-04T06:38:33.961Z,5.50
2018-11-04T06:41:02.153Z,5.40
2018-11-04T06:43:30.340Z,5.30
2018-11-04T06:45:58.526Z,5.20
2018-11-04T06:48:26.733Z,5.20
2018-11-04T06:50:54.940Z,5.10
2018-11-04T06:53:23.150Z,5.10
2018-11-04T06:55:51.341Z,5.10
2018-11-04T06:58:19.537Z,5.10
2018-11-04T07:00:47.717Z,5.10
2018-11-04T07:03:15.905Z,5.20
2018-11-04T07:05:44.126Z,5.10
2018-11-04T07:08:12.318Z,5.20
2018-11-04T07:10:40.511Z,5.20
2018-11-04T07:13:08.706Z,5.30
2018-11-04T07:15:36.911Z,5.40
2018-11-04T07:18:05.133Z,5.30
2018-11-04T07:20:33.318Z,5.30
2018-11-04T07:23:01.509Z,5.40
2018-11-04T07:25:29.708Z,5.40
2018-11-04T07:27:57.915Z,5.40
2018-11-04T07:30:26.106Z,5.40
2018-11-04T07:32:54.306Z,5.40
2018-11-04T07:35:22.503Z,5.40
2018-11-04T07:37:50.697Z,5.40
2018-11-04T07:40:18.901Z,5.40
2018-11-04T07:42:47.110Z,5.40
2018-11-04T07:45:15.329Z,5.60
2018-11-04T07:47:43.533Z,5.60
2018-11-04T07:50:13.559Z,5.70
2018-11-04T07:52:42.464Z,5.80
2018-11-04T07:55:10.691Z,6.10
2018-11-04T07:57:40.741Z,6.20
2018-11-04T08:00:11.682Z,6.20
2018-11-04T08:02:40.009Z,6.10
2018-11-04T08:05:09.145Z,6.10
2018-11-04T08:07:38.058Z,6.10
2018-11-04T08:10:14.640Z,6.10
2018-11-04T08:12:42.872Z,6.10
2018-11-04T08:15:11.575Z,6.10
2018-11-04T08:17:40.066Z,6.10
2018-11-04T08:20:08.660Z,6.20
2018-11-04T08:22:36.870Z,6.40
2018-11-04T08:25:05.467Z,6.50
2018-11-04T08:27:33.695Z,6.40
2018-11-04T08:30:01.960Z,6.40
2018-11-04T08:32:30.140Z,6.40
2018-11-04T08:34:58.353Z,6.50
2018-11-04T08:37:26.777Z,6.50
2018-11-04T08:39:55.075Z,6.60
2018-11-04T08:42:23.177Z,6.70
2018-11-04T08:44:51.403Z,6.80
2018-11-04T08:47:19.597Z,7.00
2018-11-04T08:49:47.790Z,7.00
2018-11-04T08:52:16.043Z,7.10
2018-11-04T08:54:44.333Z,7.20
2018-11-04T08:57:13.010Z,7.40
2018-11-04T08:59:41.489Z,7.50
2018-11-04T09:02:09.663Z,7.50
2018-11-04T09:04:37.855Z,7.50
2018-11-04T09:07:06.270Z,7.60
2018-11-04T09:09:34.470Z,7.90
2018-11-04T09:12:02.651Z,8.20
2018-11-04T09:14:30.847Z,8.70
2018-11-04T09:16:59.036Z,9.40
2018-11-04T09:19:27.242Z,10.10
2018-11-04T09:21:55.583Z,10.60
2018-11-04T09:24:23.645Z,11.20
2018-11-04T09:26:51.887Z,11.70
2018-11-04T09:29:20.124Z,12.10
2018-11-04T09:31:48.293Z,12.20
2018-11-04T09:34:16.514Z,12.30
2018-11-04T09:36:44.741Z,12.40
2018-11-04T09:39:13.014Z,12.60
2018-11-04T09:41:41.267Z,12.80
2018-11-04T09:44:09.485Z,12.90
2018-11-04T09:46:37.670Z,13.00
2018-11-04T09:49:05.869Z,13.20
2018-11-04T09:51:34.080Z,13.50
2018-11-04T09:54:02.267Z,13.70
2018-11-04T09:56:30.532Z,14.00
2018-11-04T09:58:58.658Z,14.30
2018-11-04T10:01:26.866Z,14.70
2018-11-04T10:03:55.075Z,14.90
2018-11-04T10:06:23.281Z,15.10
2018-11-04T10:08:51.482Z,15.50
2018-11-04T10:11:19.685Z,15.80
2018-11-04T10:13:47.873Z,15.90
2018-11-04T10:16:16.091Z,15.90
2018-11-04T10:18:44.293Z,16.00
2018-11-04T10:21:12.718Z,16.40
2018-11-04T10:23:40.702Z,16.50
2018-11-04T10:26:08.921Z,16.70
2018-11-04T10:28:37.125Z,16.80
2018-11-04T10:31:05.446Z,16.80
2018-11-04T10:33:33.622Z,17.10
2018-11-04T10:36:01.840Z,17.20
2018-11-04T10:38:30.030Z,16.80
2018-11-04T10:40:58.229Z,16.10
2018-11-04T10:43:26.453Z,15.70
2018-11-04T10:45:54.651Z,15.10
2018-11-04T10:48:22.841Z,14.60
2018-11-04T10:50:51.054Z,14.60
2018-11-04T10:53:19.254Z,14.30
2018-11-04T10:55:47.485Z,14.10
2018-11-04T10:58:15.655Z,14.00
2018-11-04T11:00:49.218Z,13.90
2018-11-04T11:03:17.402Z,13.80
2018-11-04T11:05:45.605Z,13.70
2018-11-04T11:08:13.801Z,13.70
2018-11-04T11:10:42.015Z,13.70
2018-11-04T11:13:10.198Z,13.70
2018-11-04T11:15:38.410Z,13.60
2018-11-04T11:18:06.605Z,13.50
2018-11-04T11:20:34.816Z,13.30
2018-11-04T11:23:03.086Z,13.20
2018-11-04T11:25:31.213Z,13.20
2018-11-04T11:27:59.411Z,13.30
2018-11-04T11:30:27.609Z,13.30
2018-11-04T11:32:55.928Z,13.30
2018-11-04T11:35:24.113Z,13.20
2018-11-04T11:37:52.388Z,13.10
2018-11-04T11:40:20.534Z,13.10
2018-11-04T11:42:48.767Z,13.10
2018-11-04T11:45:16.954Z,13.10
2018-11-04T11:47:45.153Z,13.10
2018-11-04T11:50:20.124Z,13.10
2018-11-04T11:52:48.361Z,13.00
2018-11-04T11:55:16.557Z,13.00
2018-11-04T11:57:44.841Z,13.00
2018-11-04T12:00:13.046Z,13.00
2018-11-04T12:02:41.525Z,13.00
2018-11-04T12:05:10.223Z,13.00
2018-11-04T12:07:38.699Z,12.90
2018-11-04T12:10:08.809Z,12.90
2018-11-04T12:12:37.058Z,12.90
2018-11-04T12:15:06.374Z,12.90
2018-11-04T12:17:34.610Z,12.90
2018-11-04T12:20:02.766Z,12.90
2018-11-04T12:22:30.964Z,12.90
2018-11-04T12:24:59.150Z,12.90
2018-11-04T12:27:27.366Z,12.80
2018-11-04T12:29:55.546Z,12.80
2018-11-04T12:32:23.762Z,12.80
2018-11-04T12:34:51.949Z,12.80
2018-11-04T12:37:20.171Z,12.90
2018-11-04T12:39:48.358Z,12.90
2018-11-04T12:42:16.553Z,12.90
2018-11-04T12:44:44.802Z,12.90
2018-11-04T12:47:13.056Z,12.80
2018-11-04T12:49:41.278Z,12.80
2018-11-04T12:52:09.501Z,12.80
2018-11-04T12:54:37.677Z,12.80
2018-11-04T12:57:06.276Z,12.80
2018-11-04T12:59:34.491Z,12.80
2018-11-04T13:02:02.932Z,12.70
2018-11-04T13:04:31.030Z,12.70
2018-11-04T13:06:59.246Z,12.70
2018-11-04T13:09:27.426Z,12.70
2018-11-04T13:11:55.625Z,12.70
2018-11-04T13:14:23.831Z,12.70
2018-11-04T13:16:52.021Z,12.70
2018-11-04T13:19:20.209Z,12.60
2018-11-04T13:21:48.430Z,12.60
2018-11-04T13:24:16.617Z,12.60
2018-11-04T13:26:44.841Z,12.60
2018-11-04T13:29:13.050Z,12.60
2018-11-04T13:31:41.284Z,12.60
2018-11-04T13:34:09.518Z,12.60
2018-11-04T13:36:38.077Z,12.60
2018-11-04T13:39:07.574Z,12.60
2018-11-04T13:41:35.761Z,12.50
2018-11-04T13:44:03.980Z,12.60
2018-11-04T13:46:32.169Z,12.60
2018-11-04T13:49:00.381Z,12.60
2018-11-04T13:51:28.681Z,12.60
2018-11-04T13:53:56.893Z,12.60
2018-11-04T13:56:25.077Z,12.60
2018-11-04T13:58:53.757Z,12.60
2018-11-04T14:01:22.183Z,12.60
2018-11-04T14:03:50.414Z,12.60
2018-11-04T14:06:18.613Z,12.50
2018-11-04T14:08:46.818Z,12.50
2018-11-04T14:11:15.081Z,12.50
2018-11-04T14:13:43.475Z,12.50
2018-11-04T14:16:11.676Z,12.50
2018-11-04T14:18:39.859Z,12.50
2018-11-04T14:21:08.040Z,12.50
2018-11-04T14:23:36.286Z,12.50
2018-11-04T14:26:04.446Z,12.40
2018-11-04T14:28:32.658Z,12.50
2018-11-04T14:31:00.854Z,12.40
2018-11-04T14:33:29.054Z,12.40
2018-11-04T14:35:57.237Z,12.40
2018-11-04T14:38:25.444Z,12.30
2018-11-04T14:40:53.625Z,12.40
2018-11-04T14:43:21.822Z,12.30
2018-11-04T14:45:50.074Z,12.30
2018-11-04T14:48:18.201Z,12.30
2018-11-04T14:50:46.386Z,12.20
2018-11-04T14:53:14.607Z,12.20
2018-11-04T14:55:42.804Z,12.20
2018-11-04T14:58:11.039Z,12.20
2018-11-04T15:00:39.241Z,12.20
2018-11-04T15:03:07.777Z,12.10
2018-11-04T15:05:36.050Z,12.10
2018-11-04T15:08:04.214Z,12.10
2018-11-04T15:10:32.413Z,12.00
2018-11-04T15:13:00.665Z,12.00
2018-11-04T15:15:28.881Z,12.00
2018-11-04T15:17:57.091Z,11.90
2018-11-04T15:20:25.291Z,11.80
2018-11-04T15:22:53.497Z,11.80
2018-11-04T15:25:22.454Z,11.70
2018-11-04T15:27:50.741Z,11.60
2018-11-04T15:30:19.006Z,11.60
2018-11-04T15:32:47.229Z,11.50
2018-11-04T15:35:16.243Z,11.50
2018-11-04T15:37:44.674Z,11.40
2018-11-04T15:40:13.890Z,11.30
2018-11-04T15:42:42.150Z,11.20
2018-11-04T15:45:11.861Z,11.20
2018-11-04T15:47:40.547Z,11.10
2018-11-04T15:50:11.165Z,11.00
2018-11-04T15:52:39.519Z,11.00
2018-11-04T15:55:07.850Z,10.90
2018-11-04T15:57:36.090Z,10.80
2018-11-04T16:00:04.511Z,10.70
2018-11-04T16:02:32.714Z,10.60
2018-11-04T16:05:00.941Z,10.60
2018-11-04T16:07:29.171Z,10.60
2018-11-04T16:09:57.937Z,10.60
2018-11-04T16:12:26.201Z,10.70
2018-11-04T16:14:54.492Z,10.70
2018-11-04T16:17:22.822Z,10.80
2018-11-04T16:19:51.037Z,10.90
2018-11-04T16:22:19.230Z,10.90
2018-11-04T16:24:47.462Z,11.00
2018-11-04T16:27:15.702Z,10.80
2018-11-04T16:29:43.910Z,10.80
2018-11-04T16:32:12.168Z,10.70
2018-11-04T16:34:40.329Z,10.60
2018-11-04T16:37:08.533Z,10.50
2018-11-04T16:39:36.742Z,10.40
2018-11-04T16:42:05.271Z,10.50
2018-11-04T16:44:33.500Z,10.40
2018-11-04T16:47:01.666Z,10.40
2018-11-04T16:49:30.960Z,10.40
2018-11-04T16:51:59.182Z,10.20
2018-11-04T16:54:27.376Z,10.20
2018-11-04T16:56:55.865Z,10.10
2018-11-04T16:59:25.173Z,10.10
2018-11-04T17:01:53.408Z,10.00
2018-11-04T17:04:22.178Z,10.00
2018-11-04T17:06:50.489Z,10.00
2018-11-04T17:09:18.749Z,9.90
2018-11-04T17:11:47.022Z,9.80
2018-11-04T17:14:15.222Z,9.80
2018-11-04T17:16:43.512Z,9.70
2018-11-04T17:19:11.702Z,9.80
2018-11-04T17:21:39.954Z,9.70
2018-11-04T17:24:08.173Z,9.70
2018-11-04T17:26:36.401Z,9.60
2018-11-04T17:29:04.753Z,9.70
2018-11-04T17:31:32.957Z,9.60
2018-11-04T17:34:01.161Z,9.60
2018-11-04T17:36:29.539Z,9.60
2018-11-04T17:38:57.594Z,9.60
2018-11-04T17:41:25.813Z,9.50
2018-11-04T17:43:54.048Z,9.50
2018-11-04T17:46:22.245Z,9.50
2018-11-04T17:48:50.448Z,9.50
2018-11-04T17:51:18.658Z,9.60
2018-11-04T17:53:46.895Z,9.50
2018-11-04T17:56:15.058Z,9.40
2018-11-04T17:58:43.270Z,9.40
2018-11-04T18:01:11.471Z,9.40
2018-11-04T18:03:39.750Z,9.40
2018-11-04T18:06:07.929Z,9.30
2018-11-04T18:08:36.117Z,9.20
2018-11-04T18:11:04.306Z,9.20
2018-11-04T18:13:32.507Z,9.20
2018-11-04T18:16:00.716Z,9.20
2018-11-04T18:18:28.914Z,9.40
2018-11-04T18:20:57.119Z,9.30
2018-11-04T18:23:25.343Z,9.30
2018-11-04T18:25:53.530Z,9.30
2018-11-04T18:28:21.724Z,9.10
2018-11-04T18:30:49.940Z,9.10
2018-11-04T18:33:18.153Z,9.10
2018-11-04T18:35:46.349Z,9.10
2018-11-04T18:38:14.545Z,9.10
2018-11-04T18:40:42.742Z,9.00
2018-11-04T18:43:10.963Z,9.00
2018-11-04T18:45:39.149Z,8.90
2018-11-04T18:48:07.515Z,9.00
2018-11-04T18:50:35.762Z,9.00
2018-11-04T18:53:04.213Z,9.00
2018-11-04T18:55:32.406Z,9.00
2018-11-04T18:58:00.598Z,8.90
2018-11-04T19:00:28.805Z,8.80
2018-11-04T19:02:57.009Z,8.80
2018-11-04T19:05:35.591Z,8.80
2018-11-04T19:08:03.927Z,8.80
2018-11-04T19:11:00.141Z,8.80
2018-11-04T19:13:28.509Z,8.70
2018-11-04T19:15:56.807Z,8.60
2018-11-04T19:18:25.221Z,8.60
2018-11-04T19:20:53.474Z,8.60
2018-11-04T19:23:21.678Z,8.70
2018-11-04T19:25:51.800Z,8.60
2018-11-04T19:28:19.994Z,8.60
2018-11-04T19:30:48.262Z,8.50
2018-11-04T19:33:16.843Z,8.50
2018-11-04T19:35:45.102Z,8.40
2018-11-04T19:38:13.286Z,8.40
2018-11-04T19:40:41.537Z,8.20
2018-11-04T19:43:09.867Z,8.20
2018-11-04T19:45:38.165Z,8.20
2018-11-04T19:48:06.307Z,8.20
2018-11-04T19:50:34.510Z,8.20
2018-11-04T19:53:02.942Z,8.10
2018-11-04T19:55:37.690Z,8.30
2018-11-04T19:58:05.906Z,8.30
2018-11-04T20:00:34.101Z,8.20
2018-11-04T20:03:02.311Z,8.20
2018-11-04T20:05:30.527Z,8.30
2018-11-04T20:07:58.761Z,8.20
2018-11-04T20:10:27.079Z,8.10
2018-11-04T20:13:00.875Z,8.10
2018-11-04T20:15:29.069Z,8.10
2018-11-04T20:17:57.257Z,8.20
2018-11-04T20:20:26.575Z,8.20
2018-11-04T20:22:54.870Z,8.20
2018-11-04T20:25:28.552Z,8.20
2018-11-04T20:27:56.753Z,8.20
2018-11-04T20:30:24.962Z,8.20
2018-11-04T20:32:58.446Z,8.20
2018-11-04T20:35:27.099Z,8.10
2018-11-04T20:37:55.347Z,8.00
2018-11-04T20:40:28.975Z,8.00
2018-11-04T20:42:58.891Z,8.00
2018-11-04T20:45:27.117Z,8.00
2018-11-04T20:48:00.877Z,8.00
2018-11-04T20:50:45.035Z,8.00
2018-11-04T20:53:13.298Z,7.90
2018-11-04T20:55:47.035Z,8.00
2018-11-04T20:58:15.409Z,7.90
2018-11-04T21:00:43.507Z,7.90
2018-11-04T21:03:11.710Z,7.90
2018-11-04T21:05:39.919Z,7.90
2018-11-04T21:08:08.106Z,7.90
2018-11-04T21:10:36.298Z,7.90
2018-11-04T21:13:04.584Z,7.80
2018-11-04T21:15:32.786Z,7.80
2018-11-04T21:18:00.973Z,7.80
2018-11-04T21:20:29.277Z,7.70
2018-11-04T21:22:57.467Z,7.70
2018-11-04T21:25:25.926Z,7.70
2018-11-04T21:27:54.164Z,7.60
2018-11-04T21:30:22.286Z,7.60
2018-11-04T21:32:50.482Z,7.50
2018-11-04T21:35:18.686Z,7.60
2018-11-04T21:37:46.932Z,7.50
2018-11-04T21:40:16.237Z,7.60
2018-11-04T21:42:44.495Z,7.70
2018-11-04T21:45:13.753Z,7.70
2018-11-04T21:47:42.266Z,7.60
2018-11-04T21:50:11.857Z,7.50
2018-11-04T21:52:40.079Z,7.40
2018-11-04T21:55:10.056Z,7.40
2018-11-04T21:57:38.422Z,7.50
2018-11-04T22:00:08.624Z,7.30
2018-11-04T22:02:37.088Z,7.20
2018-11-04T22:05:06.222Z,7.30
2018-11-04T22:07:35.019Z,7.20
2018-11-04T22:10:03.454Z,7.10
2018-11-04T22:12:31.838Z,7.20
2018-11-04T22:15:00.491Z,7.40
2018-11-04T22:17:28.727Z,7.20
2018-11-04T22:19:56.959Z,7.10
2018-11-04T22:22:25.162Z,6.90
2018-11-04T22:24:53.370Z,6.80
2018-11-04T22:27:21.585Z,6.70
2018-11-04T22:29:49.777Z,6.70
2018-11-04T22:32:17.989Z,6.70
2018-11-04T22:34:46.193Z,6.60
2018-11-04T22:37:14.398Z,6.60
2018-11-04T22:39:42.599Z,6.60
2018-11-04T22:42:10.837Z,6.50
2018-11-04T22:44:38.981Z,6.40
2018-11-04T22:47:07.230Z,6.40
2018-11-04T22:49:35.410Z,6.40
2018-11-04T22:52:03.665Z,6.60
2018-11-04T22:54:31.995Z,6.60
2018-11-04T22:57:00.197Z,6.80
2018-11-04T22:59:28.377Z,6.70
2018-11-04T23:01:56.783Z,6.60
2018-11-04T23:04:30.416Z,6.50
2018-11-04T23:06:58.641Z,6.50
2018-11-04T23:09:26.825Z,6.50
2018-11-04T23:11:55.017Z,6.50
2018-11-04T23:14:23.225Z,6.50
2018-11-04T23:16:51.423Z,6.50
2018-11-04T23:19:19.601Z,6.40
2018-11-04T23:21:47.801Z,6.40
2018-11-04T23:24:15.989Z,6.40
2018-11-04T23:26:44.211Z,6.40
2018-11-04T23:29:12.405Z,6.40
2018-11-04T23:31:40.614Z,6.40
2018-11-04T23:34:08.797Z,6.40
2018-11-04T23:36:36.993Z,6.60
2018-11-04T23:39:06.570Z,6.70
2018-11-04T23:41:34.764Z,6.60
2018-11-04T23:44:03.050Z,6.50
2018-11-04T23:46:31.221Z,6.50
2018-11-04T23:48:59.407Z,6.60
2018-11-04T23:51:27.638Z,6.60
2018-11-04T23:53:55.838Z,6.70
2018-11-04T23:56:24.050Z,6.70
2018-11-04T23:58:52.237Z,6.70
